Time;durP1;ratioP1;P1;durP2;ratioP2;P2;SDS_P1;SDS_P2;PMS_P1;PMS_P2;Temp;Humidity;BMP_temperature;BMP_pressure;BME280_temperature;BME280_humidity;BME280_pressure;Samples;Min_cycle;Max_cycle;Signal;HPM_P1;HPM_P2
2023/06/13 03:59:07;;;;;;;8.00;2.78;;;;;;;16.68;58.37;100304.03;5606102;31;75636;-56
2023/06/13 04:02:12;;;;;;;4.70;2.40;;;;;;;16.68;58.37;100304.03;5583177;32;33085;-57
2023/06/13 04:05:16;;;;;;;3.55;2.65;;;;;;;16.32;54.66;100302.50;5583435;31;34311;-56
2023/06/13 04:08:19;;;;;;;5.03;3.00;;;;;;;16.44;56.72;100302.66;5583293;32;33915;-56
2023/06/13 04:11:22;;;;;;;6.75;2.75;;;;;;;16.42;56.98;100296.78;5583157;31;33145;-56
2023/06/13 04:14:24;;;;;;;4.95;2.78;;;;;;;16.52;54.03;100309.16;5583259;31;33520;-56
2023/06/13 04:17:26;;;;;;;5.12;2.62;;;;;;;16.57;55.16;100302.81;5582404;32;34382;-56
2023/06/13 04:20:29;;;;;;;4.78;2.90;;;;;;;16.62;55.48;100306.16;5583260;31;33715;-56
2023/06/13 04:23:31;;;;;;;5.10;2.95;;;;;;;16.52;57.92;100311.87;5583124;31;33591;-56
2023/06/13 04:26:33;;;;;;;5.07;2.60;;;;;;;16.65;53.32;100310.09;5583336;31;34004;-56
2023/06/13 04:29:36;;;;;;;4.65;2.53;;;;;;;16.68;59.72;100317.56;5582936;32;33567;-56
2023/06/13 04:32:43;;;;;;;4.20;2.45;;;;;;;16.75;52.61;100315.19;5582996;31;33669;-56
2023/06/13 04:35:48;;;;;;;4.15;2.65;;;;;;;16.83;55.81;100306.28;5583243;31;33145;-56
2023/06/13 04:38:53;;;;;;;5.07;2.50;;;;;;;16.90;50.78;100311.19;5583095;32;34213;-57
2023/06/13 04:41:55;;;;;;;4.05;2.62;;;;;;;16.98;59.33;100309.56;5583355;31;33655;-56
2023/06/13 04:45:01;;;;;;;4.53;2.22;;;;;;;17.04;51.35;100313.69;5583051;32;33559;-56
2023/06/13 04:48:04;;;;;;;5.93;2.58;;;;;;;16.87;49.86;100306.41;5582992;31;33625;-56
2023/06/13 04:51:09;;;;;;;7.28;2.85;;;;;;;16.93;53.04;100312.44;5578125;32;33597;-56
2023/06/13 04:54:15;;;;;;;3.72;2.45;;;;;;;17.15;50.68;100309.47;5563072;32;33794;-57
2023/06/13 04:57:18;;;;;;;3.97;2.42;;;;;;;17.22;56.03;100315.19;5562912;32;33705;-56
2023/06/13 05:00:22;;;;;;;3.78;2.55;;;;;;;17.26;49.68;100318.03;5563184;32;33526;-56
2023/06/13 05:03:25;;;;;;;5.53;2.60;;;;;;;17.27;59.06;100319.63;5563894;32;34247;-56
2023/06/13 05:06:28;;;;;;;5.68;2.40;;;;;;;17.38;57.17;100310.00;5563334;32;33617;-56
2023/06/13 05:09:30;;;;;;;4.30;2.40;;;;;;;17.35;49.55;100326.91;5553649;32;34230;-56
2023/06/13 05:12:33;;;;;;;6.65;2.80;;;;;;;17.42;57.69;100324.50;5549750;32;33524;-56
2023/06/13 05:15:36;;;;;;;9.40;2.87;;;;;;;17.55;53.93;100320.75;5550077;32;33632;-57
2023/06/13 05:18:40;;;;;;;9.95;2.70;;;;;;;17.60;46.87;100320.56;5549436;32;33890;-56
2023/06/13 05:21:42;;;;;;;4.93;2.45;;;;;;;17.89;51.06;100323.59;5550024;32;33273;-56
2023/06/13 05:24:45;;;;;;;3.97;2.40;;;;;;;17.86;48.67;100322.34;5567785;32;34048;-56
2023/06/13 05:27:48;;;;;;;3.80;2.55;;;;;;;18.03;48.43;100321.41;5568604;32;34212;-57
2023/06/13 05:30:51;;;;;;;3.70;2.33;;;;;;;18.22;46.93;100318.22;5569423;32;33669;-56
2023/06/13 05:33:55;;;;;;;4.03;2.30;;;;;;;18.25;46.79;100315.63;5568536;32;33684;-56
2023/06/13 05:36:57;;;;;;;3.90;2.33;;;;;;;18.35;45.03;100313.62;5568836;32;33727;-56
2023/06/13 05:40:00;;;;;;;6.32;2.45;;;;;;;18.58;47.62;100320.28;5567294;32;34342;-56
2023/06/13 05:43:03;;;;;;;5.82;2.22;;;;;;;18.69;54.26;100323.34;5561206;32;34348;-57
2023/06/13 05:46:06;;;;;;;4.97;2.53;;;;;;;18.77;46.59;100319.75;5568815;32;33604;-56
2023/06/13 05:49:08;;;;;;;5.97;2.50;;;;;;;18.78;46.95;100322.16;5568108;32;33701;-56
2023/06/13 05:52:11;;;;;;;5.93;2.58;;;;;;;18.94;47.48;100329.63;5568091;32;33604;-57
2023/06/13 05:55:13;;;;;;;4.32;2.60;;;;;;;19.00;46.28;100326.34;5568214;32;34400;-56
2023/06/13 05:58:19;;;;;;;4.10;2.08;;;;;;;18.96;46.39;100319.22;5567948;32;34258;-57
2023/06/13 06:01:24;;;;;;;8.23;2.60;;;;;;;19.10;46.65;100313.47;5568576;32;33668;-55
2023/06/13 06:04:26;;;;;;;3.72;2.35;;;;;;;18.87;44.16;100313.88;5568484;32;34369;-55
2023/06/13 06:07:29;;;;;;;5.10;2.70;;;;;;;18.82;46.33;100318.78;5567975;32;33648;-57
2023/06/13 06:10:31;;;;;;;4.20;2.62;;;;;;;18.63;43.37;100321.97;5568223;32;33273;-55
2023/06/13 06:13:33;;;;;;;9.45;2.72;;;;;;;18.92;52.04;100318.34;5567715;32;33637;-55
2023/06/13 06:16:36;;;;;;;4.55;2.50;;;;;;;18.89;43.44;100317.06;5564375;32;33656;-55
2023/06/13 06:19:38;;;;;;;7.72;2.33;;;;;;;19.02;42.81;100307.03;5563696;32;33380;-56
2023/06/13 06:22:41;;;;;;;2.97;2.50;;;;;;;19.18;45.28;100309.88;5566790;32;33588;-56
2023/06/13 06:25:43;;;;;;;7.47;2.33;;;;;;;19.19;44.77;100311.44;5562257;32;34351;-55
2023/06/13 06:28:46;;;;;;;4.22;2.20;;;;;;;19.39;46.49;100315.16;5567215;32;33688;-55
2023/06/13 06:31:48;;;;;;;4.40;2.37;;;;;;;19.54;41.32;100313.69;5564903;32;33703;-54
2023/06/13 06:34:51;;;;;;;4.45;2.35;;;;;;;19.47;42.75;100317.78;5559830;32;33557;-54
2023/06/13 06:37:53;;;;;;;5.65;2.40;;;;;;;19.53;44.46;100307.44;5559308;32;33327;-56
2023/06/13 06:40:56;;;;;;;3.58;2.20;;;;;;;19.53;43.79;100307.44;5566769;32;33195;-56
2023/06/13 06:43:58;;;;;;;4.22;2.60;;;;;;;19.27;42.01;100298.84;5565778;32;34315;-55
2023/06/13 06:47:01;;;;;;;4.80;2.65;;;;;;;19.26;43.59;100308.94;5566872;32;33200;-55
2023/06/13 06:50:03;;;;;;;4.65;2.60;;;;;;;19.00;41.33;100290.25;5567941;32;33638;-55
2023/06/13 06:53:06;;;;;;;6.05;2.33;;;;;;;19.01;42.73;100295.38;5567282;32;34322;-55
2023/06/13 06:56:08;;;;;;;4.07;2.50;;;;;;;19.20;42.11;100294.00;5564384;32;33683;-54
2023/06/13 06:59:10;;;;;;;4.30;2.40;;;;;;;19.17;43.25;100306.34;5566461;32;33572;-55
2023/06/13 07:02:13;;;;;;;4.37;2.17;;;;;;;19.37;43.99;100298.41;5566226;32;33573;-54
2023/06/13 07:05:15;;;;;;;5.55;2.20;;;;;;;19.58;48.04;100298.28;5566723;32;34349;-56
2023/06/13 07:08:17;;;;;;;3.55;2.20;;;;;;;19.66;42.97;100297.38;5547956;32;34215;-55
2023/06/13 07:11:20;;;;;;;5.95;2.65;;;;;;;19.64;41.56;100297.72;5561039;32;33159;-56
2023/06/13 07:14:25;;;;;;;5.65;1.92;;;;;;;19.67;41.36;100301.69;5567234;32;33941;-56
2023/06/13 07:17:30;;;;;;;6.47;2.30;;;;;;;19.68;41.69;100303.28;5567824;32;34234;-56
2023/06/13 07:20:32;;;;;;;7.45;2.72;;;;;;;19.65;40.71;100295.78;5566013;32;34369;-55
2023/06/13 07:23:35;;;;;;;3.85;2.08;;;;;;;19.51;39.88;100292.62;5566491;32;33267;-55
2023/06/13 07:26:37;;;;;;;5.00;2.55;;;;;;;19.84;49.50;100289.75;5566157;32;33421;-54
2023/06/13 07:29:40;;;;;;;32.83;2.83;;;;;;;19.94;39.33;100283.81;5567318;32;33942;-55
2023/06/13 07:32:42;;;;;;;6.43;2.65;;;;;;;20.04;42.18;100283.34;5548707;32;34511;-56
2023/06/13 07:35:45;;;;;;;5.65;2.17;;;;;;;20.16;45.38;100290.63;5547959;32;33597;-55
2023/06/13 07:38:47;;;;;;;4.82;2.20;;;;;;;20.34;45.74;100282.97;5547884;32;34239;-55
2023/06/13 07:41:50;;;;;;;5.60;2.47;;;;;;;20.29;40.97;100281.28;5547809;32;33638;-55
2023/06/13 07:44:52;;;;;;;6.93;2.37;;;;;;;20.45;41.46;100272.38;5554342;32;33599;-55
2023/06/13 07:47:57;;;;;;;5.72;2.58;;;;;;;20.45;43.65;100275.09;5566396;32;33560;-56
2023/06/13 07:50:59;;;;;;;8.13;2.60;;;;;;;20.71;46.45;100269.16;5566725;32;33263;-55
2023/06/13 07:54:02;;;;;;;4.87;2.80;;;;;;;20.71;41.24;100267.22;5566689;32;33138;-55
2023/06/13 07:57:04;;;;;;;2.85;2.30;;;;;;;20.34;40.48;100274.81;5566397;32;34336;-55
2023/06/13 08:00:27;;;;;;;6.47;2.53;;;;;;;20.43;44.33;100264.56;5566777;32;33316;-55
2023/06/13 08:03:29;;;;;;;5.60;2.28;;;;;;;20.59;40.46;100257.19;5566716;32;34374;-55
2023/06/13 08:06:32;;;;;;;5.10;2.40;;;;;;;20.60;41.36;100263.47;5559309;32;33950;-55
2023/06/13 08:09:35;;;;;;;9.07;2.50;;;;;;;20.67;39.67;100257.41;5565033;32;33875;-55
2023/06/13 08:12:37;;;;;;;7.37;2.95;;;;;;;20.64;45.37;100261.59;5565718;32;33695;-56
2023/06/13 08:15:40;;;;;;;6.07;2.58;;;;;;;20.82;42.52;100253.87;5565634;32;33134;-56
2023/06/13 08:18:43;;;;;;;7.37;2.53;;;;;;;20.89;42.73;100248.59;5566922;32;34307;-56
2023/06/13 08:21:46;;;;;;;9.85;2.83;;;;;;;20.95;41.05;100241.72;5566282;32;34387;-56
2023/06/13 08:24:48;;;;;;;6.95;2.65;;;;;;;20.94;44.33;100248.34;5563232;32;34356;-57
2023/06/13 08:27:52;;;;;;;9.10;2.33;;;;;;;21.09;42.59;100244.00;5565232;32;33602;-57
2023/06/13 08:30:54;;;;;;;5.70;2.15;;;;;;;21.10;41.33;100246.38;5564711;32;33771;-57
2023/06/13 08:34:16;;;;;;;5.53;2.60;;;;;;;20.70;38.07;100259.44;5561705;32;33797;-57
2023/06/13 08:37:19;;;;;;;4.32;2.12;;;;;;;20.44;38.74;100243.56;5557141;32;33659;-57
2023/06/13 08:40:22;;;;;;;5.53;2.72;;;;;;;20.54;42.83;100251.25;5563746;32;34077;-57
2023/06/13 08:43:24;;;;;;;7.53;2.80;;;;;;;20.63;39.24;100244.47;5565928;32;33339;-56
2023/06/13 08:46:28;;;;;;;6.53;2.40;;;;;;;20.63;40.36;100246.41;5568350;32;33525;-56
2023/06/13 08:49:31;;;;;;;7.68;2.40;;;;;;;20.60;38.68;100236.22;5568695;32;33445;-57
2023/06/13 08:52:41;;;;;;;2.35;1.90;;;;;;;20.70;39.03;100246.59;5566538;32;33695;-57
2023/06/13 08:55:45;;;;;;;8.85;2.37;;;;;;;20.63;42.83;100239.03;5566936;32;34245;-57
2023/06/13 08:59:03;;;;;;;4.70;2.53;;;;;;;20.96;39.08;100242.50;5568629;32;33555;-57
2023/06/13 09:02:06;;;;;;;6.50;2.40;;;;;;;20.96;36.99;100242.50;5559115;32;33649;-56
2023/06/13 09:05:13;;;;;;;5.37;2.30;;;;;;;20.85;37.82;100255.88;5562738;32;33273;-56
2023/06/13 09:08:17;;;;;;;8.18;2.37;;;;;;;20.76;35.93;100238.94;5565165;32;33194;-57
2023/06/13 09:11:34;;;;;;;4.70;2.90;;;;;;;20.87;43.43;100243.50;5564957;32;33613;-56
2023/06/13 09:14:37;;;;;;;4.28;2.55;;;;;;;20.88;39.75;100242.34;5560148;32;33272;-56
2023/06/13 09:17:39;;;;;;;4.78;2.70;;;;;;;20.72;41.02;100251.69;5560975;32;33669;-56
2023/06/13 09:20:42;;;;;;;4.85;2.37;;;;;;;20.59;42.38;100243.56;5549137;32;33705;-56
2023/06/13 09:23:44;;;;;;;5.85;2.62;;;;;;;20.86;42.65;100236.47;5557014;32;33721;-56
2023/06/13 09:26:47;;;;;;;4.50;2.35;;;;;;;20.83;37.77;100230.94;5552730;32;33592;-57
2023/06/13 09:29:51;;;;;;;12.20;3.00;;;;;;;20.94;40.76;100237.44;5557525;32;33823;-57
2023/06/13 09:32:53;;;;;;;4.68;2.50;;;;;;;20.98;39.61;100230.13;5555891;32;33643;-55
2023/06/13 09:35:55;;;;;;;7.95;2.50;;;;;;;21.04;39.92;100225.19;5567737;32;33994;-55
2023/06/13 09:39:03;;;;;;;17.30;3.00;;;;;;;20.83;42.05;100226.28;5568397;32;33711;-55
2023/06/13 09:42:06;;;;;;;4.50;2.70;;;;;;;20.78;38.30;100234.72;5567705;32;33704;-55
2023/06/13 09:45:09;;;;;;;11.52;2.95;;;;;;;20.42;40.04;100225.62;5566958;32;34380;-55
2023/06/13 09:48:12;;;;;;;5.35;2.28;;;;;;;20.41;40.19;100225.97;5567811;32;34363;-55
2023/06/13 09:51:14;;;;;;;4.90;2.35;;;;;;;20.65;41.93;100225.84;5558510;32;33880;-56
2023/06/13 09:54:17;;;;;;;3.45;2.12;;;;;;;20.75;37.50;100224.53;5548864;32;33644;-55
2023/06/13 09:57:21;;;;;;;4.10;2.53;;;;;;;20.90;37.09;100227.59;5548771;32;33816;-55
2023/06/13 10:00:31;;;;;;;4.78;2.60;;;;;;;21.19;38.14;100223.56;5549426;32;34476;-56
2023/06/13 10:03:33;;;;;;;4.32;2.53;;;;;;;21.36;42.43;100231.41;5566798;32;34387;-56
2023/06/13 10:06:36;;;;;;;2.90;2.22;;;;;;;21.07;40.40;100233.47;5558610;32;33564;-56
2023/06/13 10:09:39;;;;;;;4.43;2.20;;;;;;;21.08;39.96;100228.78;5549408;32;34436;-55
2023/06/13 10:12:47;;;;;;;4.28;2.30;;;;;;;20.91;39.12;100237.34;5548140;32;33698;-55
2023/06/13 10:16:00;;;;;;;2.97;2.20;;;;;;;20.86;39.86;100228.31;5561790;32;33978;-55
2023/06/13 10:19:05;;;;;;;3.03;2.20;;;;;;;20.77;38.64;100229.63;5565212;32;33694;-55
2023/06/13 10:22:09;;;;;;;4.53;2.30;;;;;;;20.75;39.24;100229.19;5567256;32;34232;-55
2023/06/13 10:25:15;;;;;;;4.00;2.22;;;;;;;20.71;38.98;100217.41;5567579;32;33777;-55
2023/06/13 10:28:44;;;;;;;2.60;2.10;;;;;;;20.73;38.98;100215.94;5567082;32;34018;-56
2023/06/13 10:32:24;;;;;;;4.68;2.20;;;;;;;20.86;40.06;100211.16;5564990;32;33227;-56
2023/06/13 10:35:30;;;;;;;4.62;2.50;;;;;;;21.05;40.54;100205.75;5556237;32;34818;-56
2023/06/13 10:38:33;;;;;;;4.20;1.90;;;;;;;21.05;38.54;100210.41;5563274;32;34112;-56
2023/06/13 10:41:39;;;;;;;4.05;2.17;;;;;;;21.08;41.45;100215.16;5559512;32;33664;-56
2023/06/13 10:45:03;;;;;;;4.05;2.17;;;;;;;21.18;42.75;100224.72;5561830;32;33710;-56
2023/06/13 10:48:07;;;;;;;3.67;2.45;;;;;;;21.08;40.24;100209.72;5562969;32;33355;-56
2023/06/13 10:51:09;;;;;;;5.68;2.83;;;;;;;21.06;40.28;100201.91;5561075;32;34348;-55
2023/06/13 10:54:14;;;;;;;5.60;2.42;;;;;;;21.03;40.07;100202.63;5552756;32;33602;-55
2023/06/13 10:57:16;;;;;;;4.03;2.47;;;;;;;21.02;41.12;100202.94;5563773;32;34239;-56
2023/06/13 11:00:23;;;;;;;3.72;2.30;;;;;;;20.95;41.94;100203.59;5548315;32;31761;-55
2023/06/13 11:03:33;;;;;;;3.20;2.12;;;;;;;21.00;41.94;100197.88;5551178;32;32472;-55
2023/06/13 11:06:41;;;;;;;7.78;2.70;;;;;;;20.96;39.33;100202.47;5561292;32;33593;-56
2023/06/13 11:09:44;;;;;;;6.28;2.85;;;;;;;20.89;40.13;100196.81;5561798;32;33979;-56
2023/06/13 11:12:46;;;;;;;5.00;2.30;;;;;;;20.76;40.41;100195.34;5547869;32;33574;-56
2023/06/13 11:15:56;;;;;;;7.62;2.60;;;;;;;20.92;42.37;100198.84;5554396;32;34400;-55
2023/06/13 11:19:06;;;;;;;5.72;2.53;;;;;;;20.99;40.15;100195.47;5561001;32;34294;-56
2023/06/13 11:22:15;;;;;;;4.78;2.75;;;;;;;21.16;42.76;100195.12;5561557;32;33718;-56
2023/06/13 11:25:19;;;;;;;4.53;2.20;;;;;;;21.31;40.65;100186.06;5566843;32;33614;-56
2023/06/13 11:28:21;;;;;;;5.22;2.40;;;;;;;21.37;38.74;100186.63;5559920;32;33730;-56
2023/06/13 11:31:24;;;;;;;4.30;2.33;;;;;;;21.34;39.29;100176.41;5556981;32;33822;-57
2023/06/13 11:34:31;;;;;;;4.43;2.42;;;;;;;21.32;39.52;100175.97;5563341;32;33850;-56
2023/06/13 11:37:46;;;;;;;4.53;2.60;;;;;;;21.24;39.66;100177.75;5565968;32;34340;-55
2023/06/13 11:40:57;;;;;;;9.00;2.75;;;;;;;21.21;40.59;100170.28;5563899;32;34407;-56
2023/06/13 11:44:00;;;;;;;4.10;2.40;;;;;;;21.33;41.20;100167.44;5559403;32;33867;-55
2023/06/13 11:47:02;;;;;;;4.07;2.53;;;;;;;21.48;48.24;100168.53;5557305;32;33633;-55
2023/06/13 11:50:07;;;;;;;3.33;2.20;;;;;;;21.62;42.72;100164.50;5550160;32;34435;-55
2023/06/13 11:53:11;;;;;;;3.15;2.20;;;;;;;21.55;41.18;100165.94;5551316;32;33785;-56
2023/06/13 11:56:15;;;;;;;4.82;2.05;;;;;;;21.60;41.65;100173.06;5558568;32;33679;-57
2023/06/13 11:59:20;;;;;;;3.22;2.33;;;;;;;21.41;37.27;100173.84;5560480;32;33401;-56
2023/06/13 12:02:24;;;;;;;15.43;2.30;;;;;;;21.41;39.95;100164.88;5559367;32;33676;-56
2023/06/13 12:05:27;;;;;;;4.40;2.20;;;;;;;21.32;40.45;100165.87;5564527;32;34526;-56
2023/06/13 12:08:33;;;;;;;4.55;2.42;;;;;;;21.29;38.42;100157.59;5551051;32;33689;-56
2023/06/13 12:11:36;;;;;;;7.60;2.65;;;;;;;21.25;39.36;100152.06;5554548;32;33252;-57
2023/06/13 12:14:39;;;;;;;4.60;2.28;;;;;;;21.30;40.22;100151.78;5552632;32;33647;-56
2023/06/13 12:18:00;;;;;;;9.48;2.70;;;;;;;21.32;47.87;100151.41;5552979;32;33747;-56
2023/06/13 12:21:03;;;;;;;4.37;2.30;;;;;;;21.41;48.18;100141.13;5561680;32;33741;-56
2023/06/13 12:24:07;;;;;;;3.97;2.20;;;;;;;21.35;40.67;100145.28;5568645;32;33691;-56
2023/06/13 12:27:11;;;;;;;;;;;;;;;21.39;40.28;100148.91;5568539;32;33752;-57
2023/06/13 12:30:17;;;;;;;5.18;2.53;;;;;;;21.53;39.80;100151.91;5565973;32;33455;-56
2023/06/13 12:33:33;;;;;;;5.50;2.45;;;;;;;21.68;40.63;100147.50;5558572;32;33488;-56
2023/06/13 12:36:44;;;;;;;2.97;2.10;;;;;;;21.85;42.36;100140.00;5566924;32;32239;-57
2023/06/13 12:40:08;;;;;;;4.28;2.15;;;;;;;21.91;37.60;100128.44;5562674;32;33636;-58
2023/06/13 12:43:12;;;;;;;4.43;2.40;;;;;;;22.00;37.32;100130.94;5549327;32;34358;-56
2023/06/13 12:46:14;;;;;;;4.10;2.40;;;;;;;22.10;38.25;100122.13;5552530;32;33252;-57
2023/06/13 12:49:20;;;;;;;3.72;2.25;;;;;;;22.18;41.11;100123.84;5566596;32;33803;-57
2023/06/13 12:52:23;;;;;;;7.40;2.53;;;;;;;22.32;41.49;100119.78;5569173;32;34418;-57
2023/06/13 12:55:28;;;;;;;3.17;2.60;;;;;;;22.52;39.14;100119.34;5569124;32;33671;-57
2023/06/13 12:58:34;;;;;;;4.12;2.37;;;;;;;22.43;36.72;100126.22;5568181;32;34480;-57
2023/06/13 13:01:37;;;;;;;12.48;2.78;;;;;;;22.41;36.29;100128.50;5569278;32;33678;-59
2023/06/13 13:04:41;;;;;;;3.72;2.50;;;;;;;22.27;37.29;100127.12;5568788;32;33618;-58
2023/06/13 13:07:44;;;;;;;4.47;2.40;;;;;;;22.15;37.47;100130.06;5569287;32;33678;-58
2023/06/13 13:10:49;;;;;;;3.15;2.37;;;;;;;22.02;38.02;100121.25;5567777;32;33339;-58
2023/06/13 13:13:52;;;;;;;3.55;2.45;;;;;;;21.88;37.98;100120.97;5562111;32;34363;-59
2023/06/13 13:16:57;;;;;;;4.07;2.33;;;;;;;21.84;37.16;100122.84;5549465;32;33960;-58
2023/06/13 13:20:00;;;;;;;;;;;;;;;21.76;38.81;100119.22;5550722;32;33538;-58
2023/06/13 13:23:02;;;;;;;5.20;2.62;;;;;;;21.80;38.74;100122.78;5569153;32;33943;-58
2023/06/13 13:26:04;;;;;;;6.40;2.55;;;;;;;21.70;38.95;100112.47;5569294;32;33614;-61
2023/06/13 13:29:07;;;;;;;2.70;2.10;;;;;;;21.74;41.86;100115.25;5568700;32;33648;-58
2023/06/13 13:32:10;;;;;;;6.32;2.75;;;;;;;21.83;46.37;100124.00;5564790;32;33664;-58
2023/06/13 13:35:13;;;;;;;4.05;2.10;;;;;;;21.94;46.69;100114.06;5549276;32;33811;-58
2023/06/13 13:38:15;;;;;;;7.07;2.40;;;;;;;22.07;38.23;100113.88;5549254;32;33701;-58
2023/06/13 13:41:18;;;;;;;5.60;2.62;;;;;;;21.89;42.01;100113.59;5555404;32;33715;-58
2023/06/13 13:44:21;;;;;;;5.30;2.80;;;;;;;21.84;39.80;100102.97;5568256;32;33748;-58
2023/06/13 13:47:23;;;;;;;9.05;2.72;;;;;;;21.89;40.12;100105.41;5563715;32;34423;-57
2023/06/13 13:50:26;;;;;;;6.82;2.80;;;;;;;21.85;39.82;100110.78;5564881;31;33699;-58
2023/06/13 13:53:29;;;;;;;5.45;2.72;;;;;;;21.88;39.32;100099.13;5565421;32;33684;-58
2023/06/13 13:56:31;;;;;;;7.55;2.70;;;;;;;21.82;37.30;100097.87;5567692;32;34184;-58
2023/06/13 13:59:34;;;;;;;7.30;2.95;;;;;;;21.83;40.79;100102.19;5566982;31;34713;-57
2023/06/13 14:02:36;;;;;;;23.75;3.05;;;;;;;21.85;37.74;100099.06;5567160;32;33759;-58
2023/06/13 14:05:39;;;;;;;30.12;3.70;;;;;;;21.81;42.37;100099.00;5566963;32;33671;-58
2023/06/13 14:08:41;;;;;;;7.75;2.40;;;;;;;21.72;41.91;100093.00;5563613;32;34654;-58
2023/06/13 14:11:44;;;;;;;7.65;2.87;;;;;;;21.74;39.19;100093.44;5565639;32;33593;-56
2023/06/13 14:14:46;;;;;;;5.43;2.67;;;;;;;21.74;38.39;100096.94;5564377;32;33681;-56
2023/06/13 14:17:49;;;;;;;8.68;3.10;;;;;;;21.76;39.18;100093.88;5566971;32;33202;-56
2023/06/13 14:20:51;;;;;;;6.35;2.80;;;;;;;21.75;39.88;100092.28;5567894;32;33721;-56
2023/06/13 14:23:54;;;;;;;8.45;2.62;;;;;;;21.82;38.65;100092.44;5566378;32;33660;-55
2023/06/13 14:26:56;;;;;;;6.12;2.65;;;;;;;21.79;41.04;100090.41;5568406;32;33506;-57
2023/06/13 14:29:59;;;;;;;12.43;3.03;;;;;;;21.77;40.96;100082.59;5567682;32;34348;-56
2023/06/13 14:33:17;;;;;;;6.20;2.80;;;;;;;21.76;42.76;100080.22;5568380;32;33829;-56
2023/06/13 14:36:20;;;;;;;10.10;2.97;;;;;;;21.77;48.66;100079.06;5562590;32;33491;-56
2023/06/13 14:39:22;;;;;;;9.38;3.15;;;;;;;21.80;43.94;100081.84;5559219;32;35251;-56
2023/06/13 14:42:25;;;;;;;5.28;2.60;;;;;;;21.87;43.57;100085.88;5558153;32;34231;-57
2023/06/13 14:45:28;;;;;;;4.25;2.37;;;;;;;21.73;40.76;100073.56;5560949;32;33991;-55
2023/06/13 14:48:34;;;;;;;4.68;2.40;;;;;;;21.65;45.60;100066.38;5567748;32;33967;-56
2023/06/13 14:51:36;;;;;;;6.70;2.90;;;;;;;21.83;42.74;100068.66;5569068;32;33677;-56
2023/06/13 14:54:38;;;;;;;4.78;2.60;;;;;;;21.95;43.58;100055.62;5568865;32;33590;-56
2023/06/13 14:57:41;;;;;;;8.90;2.78;;;;;;;22.02;44.77;100058.47;5563174;32;33588;-56
2023/06/13 15:00:43;;;;;;;5.78;2.40;;;;;;;22.07;42.64;100062.03;5559700;32;34407;-56
2023/06/13 15:03:46;;;;;;;5.28;2.87;;;;;;;22.02;38.33;100055.72;5556195;32;34338;-57
2023/06/13 15:06:49;;;;;;;3.85;2.42;;;;;;;22.03;40.52;100051.84;5567051;32;34394;-55
2023/06/13 15:09:51;;;;;;;4.95;2.62;;;;;;;22.00;37.51;100054.50;5568068;32;34428;-55
2023/06/13 15:12:54;;;;;;;6.75;3.00;;;;;;;22.07;38.18;100048.38;5568049;32;33597;-55
2023/06/13 15:15:57;;;;;;;4.40;2.65;;;;;;;22.10;36.12;100051.16;5567477;32;33705;-56
2023/06/13 15:18:59;;;;;;;3.35;2.50;;;;;;;21.98;36.85;100043.94;5566986;32;33713;-56
2023/06/13 15:22:01;;;;;;;6.85;2.55;;;;;;;21.99;37.63;100042.03;5567011;32;33889;-56
2023/06/13 15:25:06;;;;;;;4.35;2.67;;;;;;;22.08;36.37;100030.84;5557159;32;33638;-57
2023/06/13 15:28:09;;;;;;;3.90;2.58;;;;;;;22.05;36.43;100032.34;5565251;32;34380;-56
2023/06/13 15:31:11;;;;;;;6.37;2.83;;;;;;;22.16;36.67;100040.75;5555935;32;34020;-57
2023/06/13 15:34:14;;;;;;;5.53;3.00;;;;;;;22.19;37.42;100029.91;5567836;32;33033;-56
2023/06/13 15:37:19;;;;;;;9.35;2.72;;;;;;;22.22;36.77;100029.16;5567186;32;34086;-57
2023/06/13 15:40:21;;;;;;;3.80;2.53;;;;;;;22.32;38.41;100033.22;5565940;32;33683;-56
2023/06/13 15:43:24;;;;;;;3.47;2.53;;;;;;;22.35;35.81;100032.47;5567448;32;33562;-56
2023/06/13 15:46:27;;;;;;;4.87;2.28;;;;;;;22.33;39.18;100037.50;5566182;32;33834;-57
2023/06/13 15:49:29;;;;;;;8.38;2.90;;;;;;;22.34;43.19;100035.56;5567783;32;33379;-57
2023/06/13 15:52:31;;;;;;;7.55;2.62;;;;;;;22.30;39.21;100037.47;5548401;32;33454;-58
2023/06/13 15:55:34;;;;;;;5.22;2.33;;;;;;;22.32;39.64;100035.94;5563890;32;33637;-56
2023/06/13 15:58:37;;;;;;;4.25;2.40;;;;;;;22.34;39.65;100041.81;5558584;32;33669;-57
2023/06/13 16:01:43;;;;;;;7.18;2.80;;;;;;;22.44;37.21;100041.16;5567048;32;33446;-56
2023/06/13 16:04:45;;;;;;;;;;;;;;;22.57;42.41;100046.41;5555381;32;33635;-57
